Time;durP1;ratioP1;P1;durP2;ratioP2;P2;SDS_P1;SDS_P2;PMS_P1;PMS_P2;Temp;Humidity;BMP_temperature;BMP_pressure;BME280_temperature;BME280_humidity;BME280_pressure;Samples;Min_cycle;Max_cycle;Signal;HPM_P1;HPM_P2
2022/11/11 00:02:31;;;;;;;8.55;1.85;;;13.90;99.90;;;;;;5035646;28;20045;-74
2022/11/11 00:05:18;;;;;;;11.80;1.85;;;14.00;99.90;;;;;;5037397;28;20046;-76
2022/11/11 00:08:04;;;;;;;11.68;2.03;;;14.00;99.90;;;;;;5036532;28;20038;-74
2022/11/11 00:10:50;;;;;;;13.30;2.13;;;14.00;99.90;;;;;;5035482;28;20042;-74
2022/11/11 00:13:37;;;;;;;8.90;1.52;;;14.00;99.90;;;;;;5036967;28;20037;-75
2022/11/11 00:16:23;;;;;;;8.70;1.48;;;14.00;99.90;;;;;;5020420;28;20059;-75
2022/11/11 00:25:26;;;;;;;10.30;1.70;;;14.00;99.90;;;;;;5035452;28;20048;-74
2022/11/11 00:28:15;;;;;;;17.33;1.92;;;14.10;99.90;;;;;;5036329;28;20483;-75
2022/11/11 00:31:10;;;;;;;9.05;1.38;;;14.10;99.90;;;;;;5035127;28;20050;-74
2022/11/11 00:33:56;;;;;;;14.02;1.77;;;14.10;99.90;;;;;;5036194;28;20041;-75
2022/11/11 00:36:42;;;;;;;10.80;1.90;;;14.10;99.90;;;;;;5035179;28;20333;-74
2022/11/11 00:39:30;;;;;;;12.23;1.73;;;14.10;99.90;;;;;;5036268;28;20368;-76
2022/11/11 00:42:15;;;;;;;12.75;2.17;;;14.10;99.90;;;;;;5034245;28;20042;-74
2022/11/11 00:45:01;;;;;;;11.52;1.52;;;14.10;99.90;;;;;;5035920;28;20038;-75
2022/11/11 00:50:58;;;;;;;13.70;1.75;;;14.10;99.90;;;;;;5034519;28;20037;-75
2022/11/11 00:53:44;;;;;;;14.48;1.48;;;14.10;99.90;;;;;;5031432;28;20038;-74
2022/11/11 00:56:35;;;;;;;10.73;1.60;;;14.20;99.90;;;;;;5014677;28;20053;-73
2022/11/11 00:59:22;;;;;;;12.38;1.83;;;14.20;99.90;;;;;;5016243;28;20045;-74
2022/11/11 01:02:08;;;;;;;12.30;1.75;;;14.20;99.90;;;;;;5014884;28;20038;-73
2022/11/11 01:04:55;;;;;;;14.55;1.80;;;14.20;99.90;;;;;;4998566;28;20401;-74
2022/11/11 01:07:42;;;;;;;8.53;1.43;;;14.20;99.90;;;;;;4999005;28;20384;-76
2022/11/11 01:10:37;;;;;;;11.80;1.52;;;14.30;99.90;;;;;;5014688;28;20046;-73
2022/11/11 01:13:24;;;;;;;11.57;1.80;;;14.30;99.90;;;;;;5015533;28;20369;-74
2022/11/11 01:16:20;;;;;;;5.75;1.45;;;14.30;99.90;;;;;;4997081;28;20061;-74
2022/11/11 01:19:06;;;;;;;12.40;1.77;;;14.50;99.90;;;;;;5015704;28;20376;-74
2022/11/11 01:21:52;;;;;;;14.32;1.80;;;14.30;99.90;;;;;;5015276;28;20053;-75
2022/11/11 01:24:39;;;;;;;5.22;1.27;;;15.70;99.90;;;;;;5015679;28;20457;-76
2022/11/11 01:27:25;;;;;;;9.20;1.70;;;14.30;99.90;;;;;;4998470;28;20072;-75
2022/11/11 01:30:12;;;;;;;12.65;1.75;;;14.30;99.90;;;;;;4999768;28;20045;-74
2022/11/11 01:32:59;;;;;;;7.97;1.35;;;14.30;99.90;;;;;;4998593;28;20061;-76
2022/11/11 01:35:46;;;;;;;14.57;1.83;;;14.30;99.90;;;;;;5013046;28;20050;-74
2022/11/11 01:38:31;;;;;;;13.43;1.52;;;14.30;99.90;;;;;;5015558;28;20361;-74
2022/11/11 01:41:36;;;;;;;8.85;1.40;;;14.30;99.90;;;;;;5001261;28;20037;-76
2022/11/11 01:44:46;;;;;;;10.93;1.70;;;14.40;99.90;;;;;;5014540;28;20045;-76
2022/11/11 01:49:17;;;;;;;11.48;1.55;;;14.40;99.90;;;;;;5001201;28;20495;-75
2022/11/11 01:51:01;;;;;;;10.23;1.20;;;14.40;99.90;;;;;;5013774;28;20365;-75
2022/11/11 01:53:52;;;;;;;;;;;14.40;99.90;;;;;;4989107;28;20064;-75
2022/11/11 01:56:41;;;;;;;6.82;1.15;;;14.30;99.90;;;;;;5033834;28;19921;-74
2022/11/11 01:59:30;;;;;;;11.30;1.70;;;14.30;99.90;;;;;;5034634;28;20033;-75
2022/11/11 02:02:42;;;;;;;9.90;1.40;;;14.30;99.90;;;;;;5033937;28;20042;-73
2022/11/11 02:05:41;;;;;;;10.20;1.73;;;14.30;99.90;;;;;;5033678;28;20053;-75
2022/11/11 02:08:32;;;;;;;6.65;1.58;;;14.30;99.90;;;;;;5034145;28;20053;-74
2022/11/11 02:14:34;;;;;;;8.50;1.80;;;14.30;99.90;;;;;;5034616;28;20483;-74
2022/11/11 02:14:36;;;;;;;12.65;1.45;;;14.30;99.90;;;;;;5034930;28;20380;-75
2022/11/11 02:17:24;;;;;;;12.48;1.58;;;14.30;99.90;;;;;;5033565;28;20037;-74
2022/11/11 02:20:14;;;;;;;8.88;1.52;;;14.20;99.90;;;;;;5034341;28;20494;-74
2022/11/11 02:23:12;;;;;;;12.32;1.85;;;14.20;99.90;;;;;;5032983;28;20053;-75
2022/11/11 02:26:01;;;;;;;10.07;1.63;;;14.10;99.90;;;;;;5034637;28;20052;-75
2022/11/11 02:28:49;;;;;;;12.52;1.75;;;14.00;99.90;;;;;;5018583;28;20061;-75
2022/11/11 02:31:35;;;;;;;10.75;1.60;;;14.00;99.90;;;;;;5034369;28;20046;-75
2022/11/11 02:34:29;;;;;;;10.80;1.55;;;14.00;99.90;;;;;;5033626;28;20049;-75
2022/11/11 02:37:18;;;;;;;11.38;1.80;;;14.00;99.90;;;;;;5033237;28;20105;-76
2022/11/11 02:40:07;;;;;;;13.70;1.70;;;14.00;99.90;;;;;;5033505;28;20065;-74
2022/11/11 02:42:54;;;;;;;14.40;2.03;;;14.10;99.90;;;;;;5032525;28;20376;-76
2022/11/11 02:45:40;;;;;;;13.75;1.75;;;14.10;99.90;;;;;;5034201;28;20483;-73
2022/11/11 02:48:27;;;;;;;11.07;1.70;;;14.10;99.90;;;;;;5036442;28;20041;-74
2022/11/11 02:51:13;;;;;;;10.57;1.80;;;14.10;99.90;;;;;;5038315;28;20042;-73
2022/11/11 02:53:59;;;;;;;11.93;1.92;;;14.10;99.90;;;;;;5032451;28;20054;-73
2022/11/11 02:59:50;;;;;;;13.98;2.20;;;14.10;99.90;;;;;;5000606;28;20050;-74
2022/11/11 03:02:39;;;;;;;9.73;1.80;;;14.10;99.90;;;;;;4999938;28;20042;-75
2022/11/11 03:05:25;;;;;;;16.08;2.05;;;14.00;99.90;;;;;;5018189;28;20049;-73
2022/11/11 03:08:11;;;;;;;9.90;1.63;;;14.70;99.90;;;;;;5017730;28;20057;-74
2022/11/11 03:10:58;;;;;;;18.42;2.10;;;14.20;99.90;;;;;;4999390;28;20089;-74
2022/11/11 03:13:44;;;;;;;13.95;1.88;;;14.20;99.90;;;;;;5017821;28;20050;-75
2022/11/11 03:19:35;;;;;;;10.65;1.73;;;14.30;99.90;;;;;;5000677;28;20065;-73
2022/11/11 03:22:21;;;;;;;11.27;1.70;;;14.20;99.90;;;;;;5016477;28;20060;-75
2022/11/11 03:25:36;;;;;;;11.23;1.70;;;14.20;99.90;;;;;;5017851;28;20057;-73
2022/11/11 03:28:25;;;;;;;14.43;2.03;;;14.20;99.90;;;;;;5017640;28;20042;-74
2022/11/11 03:31:11;;;;;;;15.32;1.80;;;14.20;99.90;;;;;;5017572;28;20373;-74
2022/11/11 03:34:17;;;;;;;12.00;1.90;;;14.10;99.90;;;;;;5017768;28;20052;-73
2022/11/11 03:40:13;;;;;;;13.70;1.80;;;14.10;99.90;;;;;;5000515;28;20049;-74
2022/11/11 03:42:59;;;;;;;15.23;2.33;;;14.10;99.90;;;;;;5016215;28;20034;-73
2022/11/11 03:45:55;;;;;;;13.90;1.98;;;14.00;99.90;;;;;;5003261;28;20041;-74
2022/11/11 03:48:41;;;;;;;14.07;1.63;;;14.00;99.90;;;;;;5016248;28;20045;-74
2022/11/11 03:51:27;;;;;;;11.55;1.65;;;14.10;99.90;;;;;;5017152;28;20045;-73
2022/11/11 03:54:13;;;;;;;14.13;1.88;;;14.00;99.90;;;;;;5017288;28;20068;-74
2022/11/11 04:00:04;;;;;;;11.15;1.67;;;13.90;99.90;;;;;;5016912;28;20045;-73
2022/11/11 04:16:04;;;;;;;12.43;1.95;;;13.50;99.90;;;;;;4987368;28;20065;-73
2022/11/11 04:22:01;;;;;;;18.42;2.38;;;13.30;99.90;;;;;;4956558;28;20057;-75
2022/11/11 04:31:01;;;;;;;;;;;13.00;99.90;;;;;;5015685;28;20042;-73
2022/11/11 04:33:47;;;;;;;18.80;2.53;;;13.00;99.90;;;;;;5016211;28;19928;-74
2022/11/11 04:36:33;;;;;;;17.75;2.35;;;12.90;99.90;;;;;;4997793;28;20061;-74
2022/11/11 04:42:25;;;;;;;20.70;2.42;;;13.00;99.90;;;;;;5014951;28;20401;-73
2022/11/11 04:45:27;;;;;;;17.67;2.08;;;12.90;99.90;;;;;;5016020;28;20037;-73
2022/11/11 04:48:15;;;;;;;20.90;2.22;;;12.80;99.90;;;;;;5016139;28;20511;-73
2022/11/11 04:51:02;;;;;;;25.05;2.80;;;13.00;99.90;;;;;;4997512;28;20373;-74
2022/11/11 04:53:48;;;;;;;19.48;2.50;;;12.80;99.90;;;;;;4989499;28;20045;-73
2022/11/11 04:56:46;;;;;;;18.25;2.60;;;12.80;99.90;;;;;;5034513;28;20041;-73
2022/11/11 04:59:32;;;;;;;20.25;2.60;;;12.80;99.90;;;;;;5035025;28;20052;-74
2022/11/11 05:05:24;;;;;;;18.20;2.88;;;12.70;99.90;;;;;;5035857;28;20041;-73
2022/11/11 05:11:15;;;;;;;20.17;3.03;;;12.70;99.90;;;;;;5033715;28;20053;-73
2022/11/11 05:25:24;;;;;;;23.73;3.05;;;12.70;99.90;;;;;;5034276;28;20492;-74
2022/11/11 05:26:30;;;;;;;13.20;2.40;;;12.70;99.90;;;;;;5035480;28;20045;-74
2022/11/11 05:29:17;;;;;;;14.82;2.40;;;12.70;99.90;;;;;;5034218;28;20052;-73
2022/11/11 05:32:03;;;;;;;19.95;2.50;;;12.70;99.90;;;;;;5035060;28;20060;-73
2022/11/11 05:34:50;;;;;;;18.48;2.35;;;12.70;99.90;;;;;;5035183;28;20048;-74
2022/11/11 05:37:36;;;;;;;21.80;2.70;;;12.10;99.90;;;;;;5033958;28;20068;-73
2022/11/11 05:40:22;;;;;;;16.88;2.47;;;12.60;99.90;;;;;;5034285;28;20048;-75
2022/11/11 05:43:08;;;;;;;19.30;2.72;;;12.60;99.90;;;;;;5034097;28;20483;-74
2022/11/11 05:45:54;;;;;;;20.83;2.60;;;12.50;99.90;;;;;;5034800;28;20056;-76
2022/11/11 05:49:13;;;;;;;13.38;2.70;;;12.50;99.90;;;;;;5033067;28;20037;-74
2022/11/11 05:51:46;;;;;;;17.73;2.40;;;12.50;99.90;;;;;;5035043;28;20049;-75
2022/11/11 05:54:32;;;;;;;20.02;2.70;;;12.50;99.90;;;;;;5024686;28;20412;-76
2022/11/11 05:57:19;;;;;;;16.05;2.50;;;12.60;99.90;;;;;;5013829;28;20049;-74
2022/11/11 06:00:05;;;;;;;21.50;2.63;;;12.90;99.90;;;;;;5015125;28;20045;-74
2022/11/11 06:02:51;;;;;;;15.27;2.45;;;12.60;99.90;;;;;;5013992;28;20346;-75
2022/11/11 06:05:37;;;;;;;19.08;2.88;;;12.60;99.90;;;;;;5015307;28;20045;-73
2022/11/11 06:08:23;;;;;;;18.58;3.08;;;12.50;99.90;;;;;;4984235;28;20492;-73
2022/11/11 06:11:09;;;;;;;22.40;2.67;;;12.60;99.90;;;;;;5000588;28;20053;-74
2022/11/11 06:13:56;;;;;;;17.35;2.70;;;12.80;99.90;;;;;;5015246;28;20379;-73
2022/11/11 06:16:42;;;;;;;20.95;2.80;;;12.60;99.90;;;;;;5013859;28;20376;-75
2022/11/11 06:19:28;;;;;;;17.63;2.75;;;12.60;99.90;;;;;;5014760;28;20046;-73
2022/11/11 06:22:54;;;;;;;17.63;2.70;;;12.70;99.90;;;;;;5016529;28;20053;-75
2022/11/11 06:28:48;;;;;;;27.27;3.03;;;12.90;99.90;;;;;;5018490;28;20472;-75
2022/11/11 06:31:34;;;;;;;17.02;2.97;;;12.70;99.90;;;;;;5004276;28;20050;-75
2022/11/11 06:34:20;;;;;;;25.10;3.15;;;12.70;99.90;;;;;;5018616;28;20042;-75
2022/11/11 06:37:08;;;;;;;17.40;2.65;;;13.10;99.90;;;;;;5017364;28;20050;-75
2022/11/11 06:39:57;;;;;;;23.65;3.13;;;12.70;99.90;;;;;;5018409;28;20050;-73
2022/11/11 06:42:43;;;;;;;18.40;2.95;;;12.70;99.90;;;;;;5017295;28;20042;-74
2022/11/11 06:45:30;;;;;;;18.10;3.05;;;12.70;99.90;;;;;;5003731;28;20045;-72
2022/11/11 06:48:16;;;;;;;18.50;3.17;;;12.80;99.90;;;;;;5018587;28;20053;-73
2022/11/11 06:51:05;;;;;;;28.67;3.55;;;12.80;99.90;;;;;;5017593;28;20037;-74
2022/11/11 06:53:51;;;;;;;19.98;3.00;;;13.00;99.90;;;;;;5017914;28;20050;-73
2022/11/11 06:56:37;;;;;;;21.63;2.90;;;13.10;99.90;;;;;;4986254;28;20377;-73
2022/11/11 06:59:23;;;;;;;16.45;2.95;;;13.10;99.90;;;;;;5000822;28;20465;-74
2022/11/11 07:02:12;;;;;;;20.55;2.95;;;11.00;99.90;;;;;;5017149;28;20046;-74
2022/11/11 07:04:59;;;;;;;22.27;2.85;;;13.20;99.90;;;;;;5003586;28;20037;-73
2022/11/11 07:07:45;;;;;;;19.52;3.42;;;13.30;99.90;;;;;;4987158;28;20046;-74
2022/11/11 07:10:32;;;;;;;22.15;3.55;;;13.30;99.90;;;;;;5016791;28;20049;-74
2022/11/11 07:13:18;;;;;;;14.43;2.80;;;13.40;99.90;;;;;;5000928;28;20054;-73
2022/11/11 07:16:04;;;;;;;19.23;3.38;;;13.40;99.90;;;;;;5002160;28;20378;-74
2022/11/11 07:18:51;;;;;;;22.92;2.85;;;13.40;99.90;;;;;;5017925;28;20104;-75
2022/11/11 07:21:37;;;;;;;18.67;3.38;;;13.40;99.90;;;;;;5003148;28;20064;-75
2022/11/11 07:24:23;;;;;;;22.10;3.35;;;13.50;99.90;;;;;;5002447;28;20045;-75
2022/11/11 07:27:09;;;;;;;24.65;3.13;;;13.50;99.90;;;;;;5017607;28;20046;-74
2022/11/11 07:29:55;;;;;;;22.85;2.97;;;13.50;99.90;;;;;;5016451;28;20401;-73
2022/11/11 07:32:50;;;;;;;18.25;3.15;;;13.50;99.90;;;;;;5016934;28;20053;-75
2022/11/11 07:35:45;;;;;;;22.98;3.22;;;13.60;99.90;;;;;;5016444;28;20457;-77
2022/11/11 07:38:31;;;;;;;22.70;3.30;;;13.60;99.90;;;;;;5017345;28;20381;-73
2022/11/11 07:41:17;;;;;;;19.92;3.50;;;13.60;99.90;;;;;;5017189;28;20054;-73
2022/11/11 07:44:03;;;;;;;23.27;3.25;;;13.60;99.90;;;;;;5016267;28;20045;-74
2022/11/11 07:46:49;;;;;;;27.67;3.65;;;13.60;99.90;;;;;;5000072;28;20485;-73
2022/11/11 07:49:39;;;;;;;20.52;3.42;;;13.60;99.90;;;;;;5015963;28;20050;-73
2022/11/11 07:52:25;;;;;;;28.55;3.70;;;13.10;99.90;;;;;;5002983;28;20476;-73
2022/11/11 07:55:13;;;;;;;20.88;3.20;;;13.60;99.90;;;;;;5026765;28;20064;-74
2022/11/11 07:58:03;;;;;;;24.38;3.53;;;13.60;99.90;;;;;;5035898;28;20045;-74
2022/11/11 08:01:15;;;;;;;24.10;3.80;;;13.60;99.90;;;;;;5036546;28;20486;-73
2022/11/11 08:04:02;;;;;;;17.40;3.17;;;13.50;99.90;;;;;;5034608;28;20054;-75
2022/11/11 08:06:52;;;;;;;18.60;3.22;;;13.60;99.90;;;;;;5035295;28;20491;-75
2022/11/11 08:09:39;;;;;;;20.35;4.03;;;13.70;99.90;;;;;;5035179;28;20045;-74
2022/11/11 08:15:29;;;;;;;23.95;3.35;;;13.70;99.90;;;;;;5034164;28;20053;-74
2022/11/11 08:18:15;;;;;;;21.27;3.38;;;12.20;99.90;;;;;;5035255;28;20057;-72
2022/11/11 08:21:03;;;;;;;25.42;3.22;;;13.80;99.90;;;;;;5035908;28;20037;-75
2022/11/11 08:23:59;;;;;;;21.65;3.50;;;13.80;99.90;;;;;;5033956;28;20064;-74
2022/11/11 08:27:06;;;;;;;21.10;3.70;;;13.80;99.90;;;;;;5035599;28;20045;-74
2022/11/11 08:29:52;;;;;;;25.67;3.17;;;13.80;99.90;;;;;;5034948;28;20056;-73
2022/11/11 08:32:38;;;;;;;37.35;4.53;;;13.80;99.90;;;;;;5036215;28;20052;-73
2022/11/11 08:35:25;;;;;;;18.48;3.28;;;13.90;99.90;;;;;;5035716;28;20049;-73
2022/11/11 08:38:12;;;;;;;24.58;3.17;;;13.90;99.90;;;;;;5036102;28;20037;-75
2022/11/11 08:41:03;;;;;;;26.27;3.55;;;15.00;99.90;;;;;;5036007;28;20037;-74
2022/11/11 08:43:53;;;;;;;15.57;2.53;;;13.90;99.90;;;;;;5035103;28;20472;-75
2022/11/11 08:46:39;;;;;;;22.20;3.65;;;13.90;99.90;;;;;;5035197;28;20044;-74
2022/11/11 08:49:25;;;;;;;27.02;3.92;;;14.00;99.90;;;;;;5035251;28;20049;-75
2022/11/11 08:52:12;;;;;;;20.92;3.35;;;14.00;99.90;;;;;;5036145;28;20495;-74
2022/11/11 08:55:00;;;;;;;20.27;3.60;;;14.10;99.90;;;;;;5022022;28;20050;-76
2022/11/11 08:57:46;;;;;;;17.50;2.85;;;14.10;99.90;;;;;;4985505;28;20058;-74
2022/11/11 09:00:33;;;;;;;16.50;2.85;;;14.10;99.90;;;;;;5016016;28;20042;-74
2022/11/11 09:03:19;;;;;;;23.48;3.63;;;14.10;99.90;;;;;;5015158;28;20057;-74
2022/11/11 09:06:05;;;;;;;19.30;3.50;;;14.20;99.90;;;;;;5016390;28;20045;-76
2022/11/11 09:08:51;;;;;;;26.80;3.75;;;14.10;99.90;;;;;;5015068;28;20042;-75
2022/11/11 09:11:37;;;;;;;19.55;3.17;;;14.20;99.90;;;;;;5016032;28;20368;-73
2022/11/11 09:14:23;;;;;;;16.92;2.97;;;14.20;99.90;;;;;;5016330;28;20448;-74
2022/11/11 09:17:11;;;;;;;22.38;3.40;;;14.10;99.90;;;;;;5014772;28;20042;-75
2022/11/11 09:19:57;;;;;;;24.98;2.92;;;14.10;99.90;;;;;;5000901;28;20052;-74
2022/11/11 09:22:48;;;;;;;19.38;3.17;;;14.00;99.90;;;;;;4996158;28;20046;-73
2022/11/11 09:25:34;;;;;;;28.52;3.20;;;13.90;99.90;;;;;;5015584;28;20049;-74
2022/11/11 09:28:20;;;;;;;20.10;3.30;;;13.90;99.90;;;;;;5015846;28;20042;-74
2022/11/11 09:31:08;;;;;;;23.98;3.05;;;13.80;99.90;;;;;;5015479;28;20377;-73
2022/11/11 09:34:14;;;;;;;17.60;2.90;;;13.40;99.90;;;;;;5015610;28;20061;-76
2022/11/11 09:37:00;;;;;;;21.33;3.45;;;13.80;99.90;;;;;;5014235;28;20045;-75
2022/11/11 09:39:46;;;;;;;19.45;3.35;;;13.60;99.90;;;;;;5015223;28;20050;-75
2022/11/11 09:43:02;;;;;;;22.50;3.13;;;13.70;99.90;;;;;;5014207;28;20057;-76
2022/11/11 09:46:13;;;;;;;15.98;2.88;;;13.70;99.90;;;;;;5015050;28;20050;-74
2022/11/11 09:49:09;;;;;;;17.05;3.05;;;13.70;99.90;;;;;;5013926;28;20226;-74
2022/11/11 09:52:11;;;;;;;21.52;3.47;;;13.80;99.90;;;;;;5015082;28;20464;-75
2022/11/11 09:55:03;;;;;;;27.08;3.50;;;13.90;99.90;;;;;;5014906;28;20046;-74
2022/11/11 09:58:03;;;;;;;21.25;3.50;;;14.00;99.90;;;;;;5014680;28;20045;-74
2022/11/11 10:00:58;;;;;;;23.27;3.50;;;14.10;99.90;;;;;;5014689;28;20050;-73
2022/11/11 10:04:11;;;;;;;22.90;3.60;;;14.20;99.90;;;;;;5013867;28;20049;-73
2022/11/11 10:07:06;;;;;;;21.20;3.38;;;14.30;99.90;;;;;;5014935;28;20042;-74
2022/11/11 10:10:10;;;;;;;21.73;3.10;;;14.40;99.90;;;;;;5014111;28;20061;-75
2022/11/11 10:12:57;;;;;;;19.05;3.10;;;14.50;99.90;;;;;;4997460;28;20053;-75
2022/11/11 10:16:13;;;;;;;21.05;3.13;;;14.60;99.90;;;;;;4996977;28;20494;-76
2022/11/11 10:19:08;;;;;;;13.85;2.95;;;14.60;99.90;;;;;;4997441;28;20493;-75
2022/11/11 10:22:19;;;;;;;19.85;2.95;;;14.50;99.90;;;;;;5015215;28;20346;-75
2022/11/11 10:25:11;;;;;;;19.58;3.30;;;14.60;99.90;;;;;;4997605;28;20042;-74
2022/11/11 10:28:00;;;;;;;17.65;3.15;;;14.60;99.90;;;;;;5014579;28;20046;-76
2022/11/11 10:30:49;;;;;;;17.63;3.00;;;14.70;99.90;;;;;;5013684;28;20046;-75
2022/11/11 10:33:45;;;;;;;;;;;14.60;99.90;;;;;;4997812;28;20049;-75
2022/11/11 10:36:41;;;;;;;16.55;2.92;;;14.60;99.90;;;;;;5013124;28;19921;-75
2022/11/11 10:39:47;;;;;;;15.10;2.65;;;14.60;99.90;;;;;;5014538;28;20046;-74
2022/11/11 10:42:33;;;;;;;14.35;2.90;;;14.60;99.90;;;;;;4996066;28;20042;-75
2022/11/11 10:45:42;;;;;;;23.33;2.88;;;14.60;99.90;;;;;;5013733;28;20052;-74
2022/11/11 10:48:44;;;;;;;13.13;3.33;;;14.60;99.90;;;;;;4997164;28;20050;-76
2022/11/11 10:51:36;;;;;;;17.92;2.72;;;14.60;99.90;;;;;;5014665;28;20472;-74
2022/11/11 10:54:39;;;;;;;17.10;2.58;;;14.60;99.90;;;;;;5013817;28;20057;-73
2022/11/11 10:57:34;;;;;;;15.17;3.03;;;14.60;99.90;;;;;;5001447;28;20045;-74
2022/11/11 11:00:23;;;;;;;20.38;2.90;;;14.60;99.90;;;;;;5013455;28;20054;-75
2022/11/11 11:03:31;;;;;;;17.77;2.90;;;14.70;99.90;;;;;;5013101;28;20042;-75
2022/11/11 11:06:26;;;;;;;19.05;3.17;;;13.10;99.90;;;;;;5014457;28;20034;-74
2022/11/11 11:10:00;;;;;;;17.88;2.47;;;14.70;99.90;;;;;;5015281;28;20491;-73
2022/11/11 11:13:05;;;;;;;15.18;2.70;;;14.90;99.90;;;;;;5017777;28;20042;-73
2022/11/11 11:15:59;;;;;;;26.17;2.83;;;15.00;99.90;;;;;;5016588;28;20053;-73
2022/11/11 11:19:19;;;;;;;13.77;2.38;;;15.20;99.90;;;;;;5003354;28;20492;-75
2022/11/11 11:22:08;;;;;;;16.35;2.72;;;15.20;99.90;;;;;;4999813;28;20125;-72
2022/11/11 11:25:09;;;;;;;15.60;2.75;;;15.20;99.90;;;;;;5003192;28;20049;-74
2022/11/11 11:28:12;;;;;;;13.80;2.63;;;15.30;99.90;;;;;;5017614;28;20338;-76
2022/11/11 11:31:09;;;;;;;19.20;3.03;;;15.30;99.90;;;;;;5001911;28;20046;-73
2022/11/11 11:34:00;;;;;;;15.07;2.92;;;15.30;99.90;;;;;;5000492;28;20072;-74
2022/11/11 11:37:06;;;;;;;20.73;2.90;;;15.30;99.90;;;;;;5016163;28;20053;-75
2022/11/11 11:40:03;;;;;;;15.68;2.67;;;15.20;99.90;;;;;;5015615;28;20062;-75
2022/11/11 11:42:56;;;;;;;17.55;2.38;;;15.20;99.90;;;;;;5016083;28;20046;-74
2022/11/11 11:45:42;;;;;;;13.30;2.70;;;15.20;99.90;;;;;;5017107;28;20061;-73
2022/11/11 11:48:45;;;;;;;16.58;2.83;;;15.20;99.90;;;;;;5017078;28;20045;-74
2022/11/11 11:51:46;;;;;;;15.60;2.90;;;15.30;99.90;;;;;;5016987;28;20049;-74
2022/11/11 11:54:46;;;;;;;15.05;2.53;;;15.40;99.90;;;;;;5016427;28;20045;-76
2022/11/11 11:57:49;;;;;;;16.75;3.00;;;15.40;99.90;;;;;;5034906;28;20049;-75
2022/11/11 12:01:13;;;;;;;19.17;2.60;;;15.50;99.90;;;;;;5036737;28;20045;-75
2022/11/11 12:04:40;;;;;;;17.65;2.70;;;15.60;99.90;;;;;;5008659;28;20068;-75
2022/11/11 12:07:48;;;;;;;15.75;2.30;;;15.70;99.90;;;;;;5036643;28;20048;-73
2022/11/11 12:10:37;;;;;;;15.50;2.63;;;15.80;99.90;;;;;;5035523;28;20456;-74
2022/11/11 12:13:48;;;;;;;18.20;2.63;;;15.90;99.90;;;;;;5036470;28;20050;-76
2022/11/11 12:16:49;;;;;;;11.65;2.53;;;16.00;99.90;;;;;;5034662;28;20053;-74
2022/11/11 12:19:42;;;;;;;19.27;3.30;;;16.10;99.90;;;;;;5036165;28;20037;-74
2022/11/11 12:22:40;;;;;;;15.20;2.75;;;16.20;99.90;;;;;;5035252;28;20042;-75
2022/11/11 12:25:48;;;;;;;14.27;2.95;;;16.20;99.90;;;;;;5035768;28;20392;-75
2022/11/11 12:28:50;;;;;;;14.43;2.60;;;16.30;99.90;;;;;;5035592;28;20113;-74
2022/11/11 12:32:14;;;;;;;22.45;2.80;;;16.30;99.90;;;;;;5035791;28;20068;-75
2022/11/11 12:35:24;;;;;;;16.77;3.10;;;16.30;99.90;;;;;;5034852;28;20045;-75
2022/11/11 12:38:42;;;;;;;17.80;3.13;;;16.20;99.90;;;;;;5035074;28;20050;-74
2022/11/11 12:41:44;;;;;;;14.93;3.03;;;15.70;99.90;;;;;;5035008;28;20057;-74
2022/11/11 12:45:25;;;;;;;16.13;2.95;;;16.10;99.90;;;;;;5013775;28;20054;-74
2022/11/11 12:48:44;;;;;;;16.75;2.65;;;17.10;99.90;;;;;;5013900;28;20519;-75
2022/11/11 12:51:53;;;;;;;16.25;2.65;;;15.90;99.90;;;;;;5000038;28;20068;-74
2022/11/11 12:55:07;;;;;;;17.30;2.65;;;15.80;99.90;;;;;;5000736;28;20069;-75
2022/11/11 12:58:13;;;;;;;15.30;3.13;;;15.80;99.90;;;;;;5013463;28;20073;-74
2022/11/11 13:01:28;;;;;;;14.18;2.72;;;15.80;99.90;;;;;;5026129;28;20053;-74
2022/11/11 13:05:02;;;;;;;16.10;2.70;;;16.00;99.90;;;;;;5033915;28;20052;-74
2022/11/11 13:07:57;;;;;;;16.17;2.35;;;16.10;99.90;;;;;;5035189;28;20380;-73
2022/11/11 13:11:36;;;;;;;14.43;2.42;;;16.20;99.90;;;;;;5033657;28;20389;-73
2022/11/11 13:15:02;;;;;;;17.30;2.87;;;16.40;99.90;;;;;;4994094;28;20535;-73
2022/11/11 13:17:52;;;;;;;11.35;2.58;;;16.50;99.90;;;;;;4993664;28;20461;-77
2022/11/11 13:20:57;;;;;;;17.25;2.53;;;16.50;99.90;;;;;;5034013;28;20472;-75
2022/11/11 13:23:52;;;;;;;12.20;2.50;;;16.50;99.90;;;;;;5038028;28;20037;-73
2022/11/11 13:26:51;;;;;;;13.23;2.25;;;16.50;99.90;;;;;;5038163;28;20049;-74
2022/11/11 13:30:06;;;;;;;16.90;2.40;;;16.40;99.90;;;;;;5034271;28;20057;-73
2022/11/11 13:33:17;;;;;;;14.13;2.63;;;16.30;99.90;;;;;;5034681;28;20046;-75
2022/11/11 13:36:15;;;;;;;14.40;2.63;;;16.00;99.90;;;;;;5033728;28;20053;-74
2022/11/11 13:39:03;;;;;;;11.40;2.15;;;16.00;99.90;;;;;;5034897;28;20041;-73
2022/11/11 13:41:53;;;;;;;14.85;2.17;;;15.80;99.90;;;;;;5033980;28;20449;-73
2022/11/11 13:44:52;;;;;;;16.73;2.25;;;16.10;99.90;;;;;;5034926;28;20042;-73
2022/11/11 13:47:45;;;;;;;14.00;2.20;;;15.30;99.90;;;;;;5035215;28;20049;-74
2022/11/11 13:50:35;;;;;;;14.90;2.30;;;15.40;99.90;;;;;;5033448;28;20041;-73
2022/11/11 13:53:31;;;;;;;13.38;2.17;;;15.40;99.90;;;;;;5034559;28;20041;-73
2022/11/11 13:56:34;;;;;;;8.77;1.70;;;15.40;99.90;;;;;;5032124;28;20041;-73
2022/11/11 13:59:27;;;;;;;15.20;2.30;;;15.40;99.90;;;;;;5038908;28;20056;-73
2022/11/11 14:02:19;;;;;;;15.57;2.15;;;15.40;99.90;;;;;;5044159;28;20467;-71
2022/11/11 14:05:08;;;;;;;11.40;2.35;;;15.30;99.90;;;;;;5035482;28;20049;-73
2022/11/11 14:07:56;;;;;;;16.35;2.05;;;15.30;99.90;;;;;;5047774;28;20045;-73
2022/11/11 14:10:52;;;;;;;10.25;2.08;;;15.20;99.90;;;;;;5049202;28;20045;-74
2022/11/11 14:13:41;;;;;;;13.68;2.10;;;15.20;99.90;;;;;;5054457;28;20044;-74
2022/11/11 14:16:34;;;;;;;11.07;2.30;;;15.20;99.90;;;;;;5053427;28;20044;-74
2022/11/11 14:19:23;;;;;;;14.95;2.10;;;15.20;99.90;;;;;;5054435;28;20367;-72
2022/11/11 14:22:32;;;;;;;12.95;2.25;;;15.20;99.90;;;;;;5032801;28;20046;-71
2022/11/11 14:25:25;;;;;;;10.65;2.28;;;15.30;99.90;;;;;;5033550;28;20345;-73
2022/11/11 14:28:27;;;;;;;18.65;2.60;;;15.30;99.90;;;;;;5034762;28;20060;-73
2022/11/11 14:31:17;;;;;;;17.33;2.30;;;15.50;99.90;;;;;;5040649;28;20037;-72
2022/11/11 14:34:33;;;;;;;11.82;2.30;;;15.60;99.90;;;;;;5050295;28;20048;-72
2022/11/11 14:37:41;;;;;;;9.40;2.40;;;15.70;99.90;;;;;;5050510;28;20040;-74
2022/11/11 14:40:32;;;;;;;10.45;2.15;;;16.20;99.90;;;;;;5033705;28;20365;-74
2022/11/11 14:43:40;;;;;;;12.52;2.20;;;15.80;99.90;;;;;;5033381;28;20484;-74
2022/11/11 14:46:29;;;;;;;13.27;2.17;;;15.70;99.90;;;;;;5038278;28;20045;-73
2022/11/11 14:49:46;;;;;;;18.05;2.63;;;15.60;99.90;;;;;;5036496;28;20038;-75
2022/11/11 14:52:43;;;;;;;12.87;2.20;;;15.60;99.90;;;;;;5037183;28;20491;-72
2022/11/11 14:55:36;;;;;;;14.43;2.30;;;15.50;99.90;;;;;;5021288;28;20477;-71
2022/11/11 14:58:30;;;;;;;13.50;2.42;;;15.30;99.90;;;;;;5018037;28;20053;-73
2022/11/11 15:01:19;;;;;;;15.95;2.80;;;15.10;99.90;;;;;;5018263;28;20463;-72
2022/11/11 15:04:13;;;;;;;11.45;2.42;;;14.90;99.90;;;;;;5017011;28;20487;-74
2022/11/11 15:07:01;;;;;;;17.25;2.67;;;14.80;99.90;;;;;;5021849;28;20038;-73
2022/11/11 15:09:50;;;;;;;;;;;14.70;99.90;;;;;;5003068;28;20366;-73
2022/11/11 15:13:28;;;;;;;8.85;2.10;;;14.60;99.90;;;;;;5020948;28;19951;-73
2022/11/11 15:16:44;;;;;;;11.93;2.00;;;14.60;99.90;;;;;;5022963;28;20053;-73
2022/11/11 15:19:59;;;;;;;14.05;2.00;;;14.60;99.90;;;;;;5037587;28;20049;-72
2022/11/11 15:23:12;;;;;;;9.93;2.08;;;14.60;99.90;;;;;;5035517;28;20049;-73
2022/11/11 15:26:25;;;;;;;12.40;2.40;;;14.60;99.90;;;;;;5020556;28;20050;-73
2022/11/11 15:29:32;;;;;;;12.50;2.47;;;14.70;99.90;;;;;;5036422;28;20397;-73
2022/11/11 15:32:31;;;;;;;13.30;2.08;;;14.60;99.90;;;;;;5037166;28;20041;-72
2022/11/11 15:35:40;;;;;;;11.15;2.05;;;14.50;99.90;;;;;;5035726;28;20049;-73
2022/11/11 15:38:29;;;;;;;11.13;1.95;;;14.40;99.90;;;;;;5037381;28;20041;-72
2022/11/11 15:41:37;;;;;;;10.50;2.20;;;14.30;99.90;;;;;;5031110;28;20041;-71
2022/11/11 15:44:29;;;;;;;16.38;4.07;;;14.30;99.90;;;;;;5031159;28;20041;-72
2022/11/11 15:47:19;;;;;;;15.02;3.30;;;14.20;99.90;;;;;;5035311;28;20045;-72
2022/11/11 15:50:24;;;;;;;17.38;4.97;;;14.10;99.90;;;;;;5036015;28;20053;-72
2022/11/11 15:53:12;;;;;;;23.58;8.05;;;14.10;99.90;;;;;;5037051;28;20499;-72
2022/11/11 15:56:00;;;;;;;21.83;8.27;;;14.00;99.90;;;;;;5035228;28;20060;-72
2022/11/11 15:58:46;;;;;;;21.10;5.53;;;13.90;99.90;;;;;;5021021;28;20350;-72
2022/11/11 16:01:33;;;;;;;18.33;5.53;;;13.90;99.90;;;;;;5017256;28;20042;-70
2022/11/11 16:04:22;;;;;;;18.42;6.28;;;13.90;99.90;;;;;;5015788;28;20050;-71
2022/11/11 16:07:35;;;;;;;19.88;6.22;;;13.80;99.90;;;;;;5016771;28;20042;-71